Terminal Aerodrome Forecast
Issued by NWS Detroit/Pontiac, MI

Home | Current Version | Previous Version | Text Only | Print | Product List | Glossary On
Versions: 1 2 3 4 5 6 7 8 9 10 11 12 13 14 15 16
000
FTUS43 KDTX 290535
TAFFNT
TAF
KFNT 290535Z 2906/3006 29008KT P6SM OVC030
     FM290800 33006KT P6SM OVC035
     FM291500 34006KT P6SM BKN030 BKN150=

USA.gov is the U.S. government's official web portal to all federal, state and local government web resources and services.